KGLH

Greenville Mid-Delta Airport

Greenville, Mississippi, USA
METAR KGLH 260253Z AUTO 15007KT 6SM RA BKN005 BKN055 OVC070 12/11 A3004 RMK AO2 SLP179 P0013 60022 T01170106 58012 $
Observed Flight Rules
Feb-26 @ 02:53 UTC (26 minutes ago) Instrument Flight Rules
Wind Visibility Clouds Conditions
150° at 7 knots 6 miles
  • Broken at 500' AGL
  • Broken at 5,500' AGL
  • Overcast at 7,000' AGL
  • Rain
Temperatures Readings Precipitation
Current 12°C / 54°F
Dewpoint 11°C / 52°F
Humidity 94%
Altimeter 30.04" Hg
Pressure 1017.9 hPa
Elevation 45
Current Rain 0.13
METAR KGLH 260253Z AUTO 15007KT 6SM RA BKN005 BKN055 OVC070 12/11 A3004 RMK AO2 SLP179 P0013 60022 T01170106 58012 $
Observed Flight Rules
Feb-26 @ 02:53 UTC
(26 minutes ago)
IFR
Wind Visibility
150° at 7 knots 6 miles
Clouds
  • Broken at 500' AGL
  • Broken at 5,500' AGL
  • Overcast at 7,000' AGL
Conditions
  • Rain
Temperature Dewpoint
12°C / 54°F 11°C / 52°F
Humidity Altimeter Pressure
94% 30.04" Hg 1017.9 hPa
Current Rain
0.13